Lanaken, Belgium
Current Conditions -  °F | °C
As of 10:25 PM on Saturday 22 Nov 2014 (Local Time) from EHBK Reporting Station
Clear Clear  
Wind Chill: 46°   Ceiling: Unl
Heat Index: 48°   Visibility: 6mi
Dew Point: 46°   Wind: 5mph
Humidity: 93%   Direction: 150°SSE
Pressure: 30.06"   Gusts: NA
Location:  50.89°N, 5.65°E
Report Text: EHBK 222125Z AUTO 15004KT 9999 NSC 09/08 Q1018 NOSIG
Loading
Personal Weather Stations






























Interactive Weather Map New forecast layout! Learn more

10-Day Weather Forecast

Advertisements
Track Severe Weather on mobile